Airfield :
LOGIN :

Register | Disclaimer

   EN    FR    IT 

 










Legend :    VFR   Marginal VFR   IFR   Intensive IFR   Very Intensive IFR
Visi :
Ceiling :
>= 8 km
>= 3000ft
5 to 8 km
1000 to 3000 ft
1500m to 5 km
500 to 1000 ft
800 to 1500m
200 to 500 ft
< 800m
< 200 ft
Symbols :   Thunderstorms  Fog  Heavy snow  Heavy precipitations  Wind > 20 kt
SIGMETs :     Misc.  Thunderstorms  Icing  Turbulence  Mountain Waves  Volcanic Ashes






- Airport Elevation : 6 ft
- IATA code : CFU


LGKR - Corfu Kerkyra

CURRENT METAR :
  • 071550Z 08008KT 9999 FEW025 SCT080 28/20 Q1008 NOSIG

EXPIRED METARs :
  • 071520Z 11006KT 9999 FEW025 SCT080 30/18 Q1008 NOSIG
  • 071450Z 12007KT 9999 FEW025 BKN080 31/18 Q1008 NOSIG
  • 071420Z 09012G22KT 9999 FEW025 SCT080 32/17 Q1008 NOSIG
  • 071350Z VRB04KT 9999 FEW025 SCT080 34/17 Q1008 NOSIG

TAF AMD TAF LGKR
Valid from the 07 at 14:00 until the 08 at 12:00 UTC


071436Z 0714/0812 VRB05KT 9999 FEW025 SCT080
TEMPO 0802/0810 10010KT
PROB40
TEMPO 0714/0718 5000 TSRA FEW018CB BKN020
PROB30
TEMPO 0809/0812 5000 RA FEW018TCU BKN020



MET'MAP, your aeronautical weather chart ! - Copyright ORBIFLY December 2007 - Disclaimer

ORBIFLY MET'MAP TEAM :

Programming & Development : Alexandra Zaïnal
Original concept : Baudouin d'Aumeries
Technical & hardware support : Manuel Goepfert
Assistance : Marc-Olivier Méhu




SOURCES & CREDITS :

   NOAA